Time;durP1;ratioP1;P1;durP2;ratioP2;P2;SDS_P1;SDS_P2;PMS_P1;PMS_P2;Temp;Humidity;BMP_temperature;BMP_pressure;BME280_temperature;BME280_humidity;BME280_pressure;Samples;Min_cycle;Max_cycle;Signal;HPM_P1;HPM_P2
2021/10/11 00:00:40;;;;;;;13.10;7.38;;;282.40;2278.40;;;;;;5039085;28;20033;-77
2021/10/11 00:03:05;;;;;;;;;;;282.40;2278.40;;;;;;5034740;28;20022;-81
2021/10/11 00:05:31;;;;;;;21.05;8.05;;;282.50;2278.40;;;;;;5034487;28;20000;-77
2021/10/11 00:07:57;;;;;;;25.08;9.48;;;282.40;2278.40;;;;;;5034753;28;20056;-77
2021/10/11 00:10:24;;;;;;;;;;;282.30;2278.40;;;;;;5034839;28;20022;-80
2021/10/11 00:12:52;;;;;;;16.23;7.68;;;282.40;2278.40;;;;;;5017089;28;19944;-78
2021/10/11 00:15:19;;;;;;;20.23;9.20;;;282.40;2278.40;;;;;;5020416;28;20029;-78
2021/10/11 00:17:46;;;;;;;18.30;8.63;;;282.40;2278.40;;;;;;5046504;28;20163;-79
2021/10/11 00:20:13;;;;;;;19.40;10.05;;;282.20;2278.40;;;;;;5033932;28;20029;-79
2021/10/11 00:22:39;;;;;;;20.27;9.02;;;282.30;2278.40;;;;;;5034272;28;20067;-76
2021/10/11 00:25:06;;;;;;;15.48;8.85;;;282.30;2278.40;;;;;;5016306;28;20069;-79
2021/10/11 00:27:32;;;;;;;16.83;9.43;;;282.40;2278.40;;;;;;5015522;28;20434;-77
2021/10/11 00:29:59;;;;;;;20.33;9.55;;;282.30;2278.40;;;;;;5016835;28;20025;-78
2021/10/11 00:32:24;;;;;;;16.33;9.80;;;282.30;2278.40;;;;;;5016353;28;20033;-76
2021/10/11 00:34:50;;;;;;;18.17;10.30;;;282.30;2278.40;;;;;;5033910;28;20814;-77
2021/10/11 00:37:16;;;;;;;;;;;282.20;2278.40;;;;;;5034250;28;20020;-81
2021/10/11 00:39:42;;;;;;;18.98;8.85;;;282.20;2278.40;;;;;;5032049;28;20363;-77
2021/10/11 00:42:08;;;;;;;17.83;9.55;;;282.20;2278.40;;;;;;5033832;28;20010;-77
2021/10/11 00:44:34;;;;;;;16.77;8.00;;;282.30;2278.40;;;;;;5021292;28;20037;-76
2021/10/11 00:46:59;;;;;;;14.77;9.45;;;282.20;2278.40;;;;;;5034087;28;20075;-82
2021/10/11 00:49:25;;;;;;;;;;;282.20;2278.40;;;;;;5016393;28;20038;-78
2021/10/11 00:51:51;;;;;;;19.42;7.45;;;282.30;2278.40;;;;;;5033745;28;19905;-79
2021/10/11 00:54:17;;;;;;;;;;;282.30;2278.40;;;;;;5033549;28;20053;-77
2021/10/11 00:56:43;;;;;;;;;;;282.40;2278.40;;;;;;5034006;28;20393;-77
2021/10/11 00:59:08;;;;;;;;;;;282.40;2278.40;;;;;;5029896;28;19917;-79
2021/10/11 01:01:34;;;;;;;;;;;282.40;2278.40;;;;;;5030166;28;19996;-76
2021/10/11 01:04:04;;;;;;;;;;;282.50;2278.40;;;;;;5023418;28;19921;-78
2021/10/11 01:06:30;;;;;;;;;;;307.20;2304.00;;;;;;5024501;28;19917;-78
2021/10/11 01:08:56;;;;;;;;;;;307.20;2304.00;;;;;;5023219;28;19916;-77
2021/10/11 01:11:22;;;;;;;;;;;307.20;2304.00;;;;;;5010296;28;19905;-77
2021/10/11 01:13:47;;;;;;;;;;;307.30;2304.00;;;;;;5028276;28;19945;-76
2021/10/11 01:16:13;;;;;;;;;;;307.30;2304.00;;;;;;5029668;28;19909;-78
2021/10/11 01:18:38;;;;;;;;;;;307.30;2304.00;;;;;;5029945;28;19975;-76
2021/10/11 01:21:04;;;;;;;;;;;307.30;2304.00;;;;;;5027211;28;19905;-81
2021/10/11 01:23:29;;;;;;;;;;;307.20;2304.00;;;;;;5017648;28;20462;-76
2021/10/11 01:25:55;;;;;;;;;;;307.30;2304.00;;;;;;5015370;28;19913;-77
2021/10/11 01:28:21;;;;;;;;;;;307.30;2304.00;;;;;;5033955;28;20358;-78
2021/10/11 01:30:47;;;;;;;;;;;307.30;2304.00;;;;;;5033411;28;19918;-75
2021/10/11 01:33:12;;;;;;;;;;;307.30;2304.00;;;;;;5015610;28;20374;-78
2021/10/11 01:35:38;;;;;;;;;;;307.30;2304.00;;;;;;5033169;28;19912;-81
2021/10/11 01:38:04;;;;;;;;;;;307.30;2304.00;;;;;;5033569;28;20358;-77
2021/10/11 01:40:29;;;;;;;;;;;307.30;2304.00;;;;;;5033048;28;19916;-76
2021/10/11 01:42:55;;;;;;;;;;;307.30;2304.00;;;;;;5033160;28;19908;-81
2021/10/11 01:45:21;;;;;;;;;;;307.30;2304.00;;;;;;5033548;28;19905;-77
2021/10/11 01:47:46;;;;;;;;;;;307.30;2304.00;;;;;;5015530;28;19909;-77
2021/10/11 01:50:12;;;;;;;;;;;307.30;2304.00;;;;;;5032987;28;19912;-79
2021/10/11 01:52:40;;;;;;;;;;;307.30;2304.00;;;;;;5032604;28;19912;-76
2021/10/11 01:55:06;;;;;;;;;;;307.30;2304.00;;;;;;5015430;28;20338;-77
2021/10/11 01:57:32;;;;;;;;;;;307.30;2304.00;;;;;;5031481;28;19959;-76
2021/10/11 01:59:58;;;;;;;;;;;307.30;2304.00;;;;;;5033049;28;20333;-80
2021/10/11 02:02:23;;;;;;;;;;;307.30;2304.00;;;;;;5015309;28;20354;-77
2021/10/11 02:04:49;;;;;;;;;;;307.30;2304.00;;;;;;5028824;28;20390;-77
2021/10/11 02:07:14;;;;;;;;;;;307.30;2304.00;;;;;;5033858;28;19909;-81
2021/10/11 02:09:40;;;;;;;;;;;307.30;2304.00;;;;;;5024709;28;19911;-79
2021/10/11 02:12:05;;;;;;;;;;;307.40;2304.00;;;;;;5019093;28;19912;-76
2021/10/11 02:14:31;;;;;;;;;;;307.40;2304.00;;;;;;5032500;28;20274;-76
2021/10/11 02:16:58;;;;;;;;;;;307.40;2304.00;;;;;;5023268;28;19912;-79
2021/10/11 02:19:24;;;;;;;;;;;307.30;2304.00;;;;;;5023070;28;20390;-75
2021/10/11 02:21:49;;;;;;;;;;;307.40;2304.00;;;;;;5032564;28;19909;-77
2021/10/11 02:24:15;;;;;;;;;;;307.40;2304.00;;;;;;5032300;28;19951;-78
2021/10/11 02:26:40;;;;;;;;;;;307.20;2304.00;;;;;;5014608;28;19959;-77
2021/10/11 02:29:06;;;;;;;;;;;307.20;2304.00;;;;;;5014240;28;19913;-76
2021/10/11 02:31:32;;;;;;;;;;;307.20;2304.00;;;;;;5014475;28;19912;-77
2021/10/11 02:33:57;;;;;;;;;;;307.30;2304.00;;;;;;4998161;28;19978;-77
2021/10/11 02:36:23;;;;;;;;;;;307.30;2304.00;;;;;;5022517;28;19908;-76
2021/10/11 02:38:48;;;;;;;;;;;307.30;2304.00;;;;;;5014747;28;19908;-75
2021/10/11 02:41:14;;;;;;;;;;;307.30;2304.00;;;;;;5031943;28;19970;-78
2021/10/11 02:43:39;;;;;;;;;;;307.30;2304.00;;;;;;5014022;28;20278;-79
2021/10/11 02:46:05;;;;;;;;;;;307.30;2304.00;;;;;;5014529;28;19905;-79
2021/10/11 02:48:31;;;;;;;;;;;307.30;2304.00;;;;;;5014521;28;19944;-78
2021/10/11 02:50:58;;;;;;;;;;;307.20;2304.00;;;;;;5031816;28;20043;-78
2021/10/11 02:53:23;;;;;;;;;;;307.20;2304.00;;;;;;5014437;28;20113;-78
2021/10/11 02:55:49;;;;;;;;;;;307.20;2304.00;;;;;;5031801;28;20123;-78
2021/10/11 02:58:14;;;;;;;;;;;307.20;2304.00;;;;;;5014147;28;19971;-78
2021/10/11 03:00:40;;;;;;;;;;;307.20;2304.00;;;;;;5013971;28;19916;-78
2021/10/11 03:03:05;;;;;;;;;;;307.30;2304.00;;;;;;5009287;28;20277;-77
2021/10/11 03:05:31;;;;;;;;;;;307.30;2304.00;;;;;;5028195;28;19920;-77
2021/10/11 03:07:57;;;;;;;;;;;307.30;2304.00;;;;;;5029826;28;19905;-79
2021/10/11 03:10:22;;;;;;;;;;;307.30;2304.00;;;;;;5037424;28;19948;-79
2021/10/11 03:12:48;;;;;;;;;;;307.20;2304.00;;;;;;5028304;28;20348;-79
2021/10/11 03:15:13;;;;;;;;;;;307.20;2304.00;;;;;;5013854;28;19959;-78
2021/10/11 03:17:39;;;;;;;;;;;307.20;2304.00;;;;;;5031647;28;20370;-78
2021/10/11 03:20:05;;;;;;;;;;;307.20;2304.00;;;;;;5014735;28;19913;-78
2021/10/11 03:22:30;;;;;;;;;;;307.20;2304.00;;;;;;5028632;28;19912;-79
2021/10/11 03:24:56;;;;;;;;;;;307.20;2304.00;;;;;;5030714;28;19923;-79
2021/10/11 03:27:22;;;;;;;;;;;307.20;2304.00;;;;;;5025190;28;19913;-78
2021/10/11 03:29:47;;;;;;;;;;;307.20;2304.00;;;;;;5031809;28;19927;-78
2021/10/11 03:32:13;;;;;;;;;;;307.20;2304.00;;;;;;5021453;28;20831;-78
2021/10/11 03:34:40;;;;;;;;;;;307.20;2304.00;;;;;;5027630;28;19962;-78
2021/10/11 03:37:05;;;;;;;;;;;307.30;2304.00;;;;;;5024008;28;19905;-78
2021/10/11 03:39:31;;;;;;;;;;;307.30;2304.00;;;;;;5040802;28;20385;-78
2021/10/11 03:41:56;;;;;;;;;;;307.20;2304.00;;;;;;5021576;28;19912;-78
2021/10/11 03:44:22;;;;;;;;;;;307.20;2304.00;;;;;;5020657;28;19970;-78
2021/10/11 03:46:48;;;;;;;;;;;307.30;2304.00;;;;;;5034289;28;19905;-78
2021/10/11 03:49:13;;;;;;;;;;;307.20;2304.00;;;;;;5029867;28;19905;-77
2021/10/11 03:51:39;;;;;;;;;;;307.20;2304.00;;;;;;5014621;28;19967;-77
2021/10/11 03:54:05;;;;;;;;;;;307.30;2304.00;;;;;;5040297;28;19905;-78
2021/10/11 03:56:30;;;;;;;;;;;307.20;2304.00;;;;;;5033915;28;20010;-76
2021/10/11 03:58:56;;;;;;;;;;;307.30;2304.00;;;;;;5034695;28;19925;-77
2021/10/11 04:01:22;;;;;;;;;;;307.30;2304.00;;;;;;5035032;28;20321;-79
2021/10/11 04:03:49;;;;;;;;;;;307.30;2304.00;;;;;;5034965;28;19917;-78
2021/10/11 04:06:15;;;;;;;;;;;307.30;2304.00;;;;;;5035639;28;20350;-79
2021/10/11 04:08:44;;;;;;;;;;;307.20;2304.00;;;;;;5032936;28;19959;-78
2021/10/11 04:13:41;;;;;;;;;;;307.30;2304.00;;;;;;5032606;28;20384;-78
2021/10/11 04:16:06;;;;;;;;;;;307.30;2304.00;;;;;;5034806;28;19905;-77
2021/10/11 04:18:32;;;;;;;;;;;307.30;2304.00;;;;;;5046552;28;19916;-76
2021/10/11 04:20:58;;;;;;;;;;;307.30;2304.00;;;;;;5030866;28;19917;-76
2021/10/11 04:23:24;;;;;;;;;;;307.30;2304.00;;;;;;5028129;28;19937;-76
2021/10/11 04:25:49;;;;;;;;;;;307.30;2304.00;;;;;;5035393;28;19920;-79
2021/10/11 04:28:15;;;;;;;;;;;307.30;2304.00;;;;;;5036866;28;19951;-77
2021/10/11 04:30:42;;;;;;;;;;;307.50;2304.00;;;;;;5034185;28;20380;-79
2021/10/11 04:33:08;;;;;;;;;;;307.20;2304.00;;;;;;5018149;28;20378;-79
2021/10/11 04:35:33;;;;;;;;;;;307.30;2304.00;;;;;;5033447;28;19905;-76
2021/10/11 04:37:59;;;;;;;;;;;307.30;2304.00;;;;;;5032514;28;19991;-77
2021/10/11 04:40:25;;;;;;;;;;;307.30;2304.00;;;;;;5020217;28;19920;-77
2021/10/11 04:42:50;;;;;;;;;;;307.30;2304.00;;;;;;5030251;28;19909;-77
2021/10/11 04:45:16;;;;;;;;;;;307.30;2304.00;;;;;;5029454;28;19941;-79
2021/10/11 04:47:41;;;;;;;;;;;307.30;2304.00;;;;;;5032155;28;19928;-77
2021/10/11 04:50:07;;;;;;;;;;;307.30;2304.00;;;;;;5021008;28;19909;-76
2021/10/11 04:52:33;;;;;;;;;;;307.20;2304.00;;;;;;5033592;28;19908;-77
2021/10/11 04:54:58;;;;;;;;;;;307.20;2304.00;;;;;;5031402;28;19917;-76
2021/10/11 04:57:24;;;;;;;;;;;307.20;2304.00;;;;;;5044299;28;20298;-78
2021/10/11 04:59:49;;;;;;;;;;;307.20;2304.00;;;;;;5029079;28;19922;-79
2021/10/11 05:02:15;;;;;;;;;;;307.20;2304.00;;;;;;5031392;28;20012;-78
2021/10/11 05:04:41;;;;;;;;;;;307.20;2304.00;;;;;;5033257;28;19921;-79
2021/10/11 05:07:06;;;;;;;;;;;307.20;2304.00;;;;;;5033709;28;20351;-79
2021/10/11 05:09:32;;;;;;;;;;;307.30;2304.00;;;;;;5029413;28;19905;-77
2021/10/11 05:11:58;;;;;;;;;;;307.30;2304.00;;;;;;5031879;28;20271;-78
2021/10/11 05:14:23;;;;;;;;;;;307.20;2304.00;;;;;;5026894;28;20753;-79
2021/10/11 05:16:49;;;;;;;;;;;307.20;2304.00;;;;;;5032826;28;19916;-77
2021/10/11 05:19:23;;;;;;;;;;;282.50;2278.40;;;;;;5009729;28;19920;-78
2021/10/11 05:21:48;;;;;;;;;;;282.50;2278.40;;;;;;5028526;28;19909;-76
2021/10/11 05:24:16;;;;;;;;;;;307.20;2304.00;;;;;;5033874;28;20378;-77
2021/10/11 05:26:41;;;;;;;;;;;282.50;2278.40;;;;;;5033446;28;19909;-77
2021/10/11 05:29:07;;;;;;;;;;;307.20;2304.00;;;;;;5015672;28;19964;-78
2021/10/11 05:31:33;;;;;;;;;;;307.20;2304.00;;;;;;5035036;28;19916;-79
2021/10/11 05:33:59;;;;;;;;;;;307.30;2304.00;;;;;;5044028;28;19920;-79
2021/10/11 05:36:24;;;;;;;;;;;282.50;2278.40;;;;;;5026080;28;19913;-79
2021/10/11 05:38:51;;;;;;;;;;;307.20;2304.00;;;;;;5032002;28;19940;-77
2021/10/11 05:41:16;;;;;;;;;;;307.30;2304.00;;;;;;5027510;28;19921;-79
2021/10/11 05:43:42;;;;;;;;;;;307.30;2304.00;;;;;;5045666;28;19909;-78
2021/10/11 05:46:08;;;;;;;;;;;307.20;2304.00;;;;;;5024406;28;19945;-79
2021/10/11 05:48:33;;;;;;;;;;;307.40;2304.00;;;;;;5029425;28;19916;-78
2021/10/11 05:50:59;;;;;;;;;;;307.30;2304.00;;;;;;5015182;28;19909;-79
2021/10/11 05:53:27;;;;;;;;;;;307.30;2304.00;;;;;;5026217;28;19932;-78
2021/10/11 05:55:53;;;;;;;;;;;307.30;2304.00;;;;;;5032065;28;19909;-79
2021/10/11 05:58:19;;;;;;;;;;;307.40;2304.00;;;;;;5028828;28;19916;-76
2021/10/11 06:00:44;;;;;;;;;;;307.40;2304.00;;;;;;5047349;28;19958;-79
2021/10/11 06:03:10;;;;;;;;;;;307.50;2304.00;;;;;;5030458;28;19909;-76
2021/10/11 06:05:35;;;;;;;;;;;307.60;2304.00;;;;;;5028299;28;19913;-79
2021/10/11 06:08:01;;;;;;;;;;;307.60;2304.00;;;;;;5025760;28;20388;-79
2021/10/11 06:10:27;;;;;;;;;;;307.60;2304.00;;;;;;5025584;28;20330;-80
2021/10/11 06:12:52;;;;;;;;;;;307.60;2304.00;;;;;;5032387;28;19905;-75
2021/10/11 06:15:18;;;;;;;;;;;307.70;2304.00;;;;;;5041922;28;20358;-79
2021/10/11 06:17:44;;;;;;;;;;;307.60;2304.00;;;;;;5028568;28;19999;-78
2021/10/11 06:20:10;;;;;;;;;;;307.70;2304.00;;;;;;5013025;28;19963;-76
2021/10/11 06:22:36;;;;;;;;;;;307.80;2304.00;;;;;;5013762;28;20281;-76
2021/10/11 06:25:04;;;;;;;;;;;307.80;2304.00;;;;;;5025105;28;19916;-76
2021/10/11 06:27:30;;;;;;;;;;;307.90;2304.00;;;;;;5020784;28;20450;-80
2021/10/11 06:29:56;;;;;;;;;;;307.90;2304.00;;;;;;5028227;28;19909;-76
2021/10/11 06:32:21;;;;;;;;;;;307.90;2304.00;;;;;;5029456;28;20309;-77
2021/10/11 06:34:47;;;;;;;;;;;307.90;2304.00;;;;;;5028543;28;20355;-75
2021/10/11 06:37:12;;;;;;;;;;;307.90;2304.00;;;;;;5020540;28;19912;-76
2021/10/11 06:39:38;;;;;;;;;;;307.90;2304.00;;;;;;5030224;28;20004;-77
2021/10/11 06:42:04;;;;;;;;;;;307.90;2304.00;;;;;;5014854;28;19905;-75
2021/10/11 06:44:31;;;;;;;;;;;307.90;2304.00;;;;;;5029577;28;19909;-75
2021/10/11 06:46:56;;;;;;;;;;;307.90;2304.00;;;;;;5032336;28;20361;-76
2021/10/11 06:49:22;;;;;;;;;;;307.90;2304.00;;;;;;5036704;28;20059;-77
2021/10/11 06:51:48;;;;;;;;;;;307.90;2304.00;;;;;;5012798;28;20278;-79
2021/10/11 06:54:13;;;;;;;;;;;308.00;2304.00;;;;;;5045994;28;20366;-76
2021/10/11 06:56:39;;;;;;;;;;;308.00;2304.00;;;;;;5024053;28;20401;-78
2021/10/11 06:59:04;;;;;;;;;;;307.90;2304.00;;;;;;5030573;28;19936;-77
2021/10/11 07:01:30;;;;;;;;;;;308.00;2304.00;;;;;;5028246;28;20392;-76
2021/10/11 07:03:56;;;;;;;;;;;308.00;2304.00;;;;;;5029378;28;19936;-77
2021/10/11 07:06:23;;;;;;;;;;;308.00;2304.00;;;;;;5031222;28;19905;-76
2021/10/11 07:08:49;;;;;;;;;;;308.10;2304.00;;;;;;5022559;28;19944;-75
2021/10/11 07:11:14;;;;;;;;;;;308.00;2304.00;;;;;;5023469;28;20401;-76
2021/10/11 07:13:40;;;;;;;;;;;308.10;2304.00;;;;;;5034625;28;19913;-76
2021/10/11 07:16:06;;;;;;;;;;;308.10;2304.00;;;;;;5035481;28;20330;-77
2021/10/11 07:18:33;;;;;;;;;;;308.10;2304.00;;;;;;5035493;28;20393;-76
2021/10/11 07:20:59;;;;;;;;;;;308.10;2304.00;;;;;;5035731;28;19915;-77
2021/10/11 07:23:25;;;;;;;;;;;308.00;2304.00;;;;;;5035643;28;19912;-76
2021/10/11 07:25:50;;;;;;;;;;;308.10;2304.00;;;;;;5035540;28;19909;-76
2021/10/11 07:28:16;;;;;;;;;;;308.00;2304.00;;;;;;5033161;28;19921;-75
2021/10/11 07:30:42;;;;;;;;;;;308.00;2304.00;;;;;;5024803;28;19905;-76
2021/10/11 07:33:07;;;;;;;;;;;308.00;2304.00;;;;;;5034421;28;19916;-76
2021/10/11 07:35:33;;;;;;;;;;;308.10;2304.00;;;;;;5027950;28;19905;-80
2021/10/11 07:37:59;;;;;;;;;;;308.10;2304.00;;;;;;5035633;28;19950;-76
2021/10/11 07:40:25;;;;;;;;;;;308.00;2304.00;;;;;;5034148;28;19913;-73
2021/10/11 07:42:51;;;;;;;;;;;308.00;2304.00;;;;;;5035583;28;19919;-80
2021/10/11 07:45:17;;;;;;;;;;;308.00;2304.00;;;;;;5035897;28;19987;-78
2021/10/11 07:47:43;;;;;;;;;;;308.00;2304.00;;;;;;5036173;28;20274;-78
2021/10/11 07:50:09;;;;;;;;;;;308.10;2304.00;;;;;;5035513;28;19905;-76
2021/10/11 07:52:35;;;;;;;;;;;308.10;2304.00;;;;;;5035765;28;20359;-76
2021/10/11 07:55:01;;;;;;;;;;;308.10;2304.00;;;;;;5035020;28;19967;-80
2021/10/11 07:57:29;;;;;;;;;;;308.10;2304.00;;;;;;5046320;28;19913;-76
2021/10/11 07:59:54;;;;;;;;;;;308.10;2304.00;;;;;;5066602;28;19912;-75
2021/10/11 08:02:20;;;;;;;;;;;308.00;2304.00;;;;;;5035620;28;19916;-75
2021/10/11 08:04:45;;;;;;;;;;;308.00;2304.00;;;;;;5067088;28;19960;-75
2021/10/11 08:07:11;;;;;;;;;;;308.00;2304.00;;;;;;5035431;28;20370;-79
2021/10/11 08:09:36;;;;;;;;;;;307.90;2304.00;;;;;;5050723;28;19928;-77
2021/10/11 08:12:02;;;;;;;;;;;307.80;2304.00;;;;;;5035117;28;19909;-77
2021/10/11 08:14:28;;;;;;;;;;;307.90;2304.00;;;;;;5035448;28;19905;-75
2021/10/11 08:16:53;;;;;;;;;;;307.90;2304.00;;;;;;5046038;28;20428;-76
2021/10/11 08:19:19;;;;;;;;;;;307.80;2304.00;;;;;;5032523;28;20374;-75
2021/10/11 08:21:44;;;;;;;;;;;307.70;2304.00;;;;;;5034328;28;19928;-76
2021/10/11 08:24:12;;;;;;;;;;;307.70;2304.00;;;;;;5035036;28;19909;-76
2021/10/11 08:26:38;;;;;;;;;;;307.60;2304.00;;;;;;5042865;28;19913;-78
2021/10/11 08:29:04;;;;;;;;;;;307.70;2304.00;;;;;;5038515;28;20272;-76
2021/10/11 08:31:30;;;;;;;;;;;307.70;2304.00;;;;;;5034697;28;19936;-79
2021/10/11 08:33:56;;;;;;;;;;;307.70;2304.00;;;;;;5033207;28;19916;-78
2021/10/11 08:36:21;;;;;;;;;;;307.70;2304.00;;;;;;5050226;28;19905;-76
2021/10/11 08:38:47;;;;;;;;;;;307.80;2304.00;;;;;;5048116;28;19967;-78
2021/10/11 08:41:14;;;;;;;;;;;307.60;2304.00;;;;;;5034823;28;20362;-78
2021/10/11 08:43:41;;;;;;;;;;;307.70;2304.00;;;;;;5030565;28;19959;-76
2021/10/11 08:46:07;;;;;;;;;;;307.70;2304.00;;;;;;5034800;28;20004;-75
2021/10/11 08:48:33;;;;;;;;;;;307.70;2304.00;;;;;;5034497;28;20344;-77
2021/10/11 08:50:59;;;;;;;;;;;307.70;2304.00;;;;;;5033436;28;19909;-76
2021/10/11 08:53:25;;;;;;;;;;;307.80;2304.00;;;;;;5034253;28;19912;-75
2021/10/11 08:55:51;;;;;;;;;;;307.80;2304.00;;;;;;5034309;28;20270;-79
2021/10/11 08:58:16;;;;;;;;;;;307.90;2304.00;;;;;;5034092;28;19913;-75
2021/10/11 09:00:42;;;;;;;;;;;307.90;2304.00;;;;;;5045033;28;19917;-75
2021/10/11 09:03:09;;;;;;;;;;;307.90;2304.00;;;;;;5030722;28;20325;-74
2021/10/11 09:05:40;;;;;;;;;;;307.80;2304.00;;;;;;5028250;28;19924;-75
2021/10/11 09:08:07;;;;;;;;;;;307.80;2304.00;;;;;;5028548;28;19912;-75
2021/10/11 09:10:52;;;;;;;;;;;307.90;2304.00;;;;;;5011475;28;19905;-76
2021/10/11 09:13:26;;;;;;;;;;;307.90;2304.00;;;;;;5019058;28;19905;-75
2021/10/11 09:16:04;;;;;;;;;;;307.90;2304.00;;;;;;5031876;28;19937;-77
2021/10/11 09:18:30;;;;;;;;;;;307.90;2304.00;;;;;;5033874;28;19909;-75
2021/10/11 09:20:57;;;;;;;;;;;307.90;2304.00;;;;;;5032164;28;20290;-76
2021/10/11 09:23:23;;;;;;;;;;;307.90;2304.00;;;;;;5030142;28;20385;-77
2021/10/11 09:25:49;;;;;;;;;;;307.90;2304.00;;;;;;5032258;28;19909;-78
2021/10/11 09:28:17;;;;;;;;;;;307.90;2304.00;;;;;;5032727;28;20260;-80
2021/10/11 09:30:45;;;;;;;;;;;307.90;2304.00;;;;;;5033836;28;19951;-76
2021/10/11 09:33:11;;;;;;;;;;;308.00;2304.00;;;;;;5026672;28;19916;-77
2021/10/11 09:35:37;;;;;;;;;;;308.10;2304.00;;;;;;5039771;28;19929;-74
2021/10/11 09:38:03;;;;;;;;;;;308.00;2304.00;;;;;;5033044;28;19944;-79
2021/10/11 09:40:38;;;;;;;;;;;308.00;2304.00;;;;;;5033167;28;19959;-75
2021/10/11 09:43:10;;;;;;;;;;;308.00;2304.00;;;;;;5033228;28;19909;-74
2021/10/11 09:45:35;;;;;;;;;;;308.00;2304.00;;;;;;5030957;28;19991;-74
2021/10/11 09:48:06;;;;;;;;;;;308.00;2304.00;;;;;;5040205;28;19999;-74
2021/10/11 09:50:31;;;;;;;;;;;308.00;2304.00;;;;;;5029848;28;19969;-75
2021/10/11 09:52:57;;;;;;;;;;;307.90;2304.00;;;;;;5028655;28;19988;-74
2021/10/11 09:55:23;;;;;;;;;;;307.80;2304.00;;;;;;5022663;28;19909;-76
2021/10/11 09:57:49;;;;;;;;;;;307.90;2304.00;;;;;;5027325;28;19916;-79
2021/10/11 10:00:15;;;;;;;;;;;308.00;2304.00;;;;;;5026749;28;19914;-75
2021/10/11 10:02:42;;;;;;;;;;;332.80;2329.60;;;;;;5027748;28;19962;-74
2021/10/11 10:05:11;;;;;;;;;;;332.80;2329.60;;;;;;5029019;28;19967;-80
2021/10/11 10:07:40;;;;;;;;;;;332.90;2329.60;;;;;;5024334;28;19913;-75
2021/10/11 10:10:06;;;;;;;;;;;332.90;2329.60;;;;;;5027180;28;20275;-75
2021/10/11 10:12:33;;;;;;;;;;;332.90;2329.60;;;;;;5026479;28;19913;-77
2021/10/11 10:15:00;;;;;;;;;;;332.90;2329.60;;;;;;5032892;28;20680;-75
2021/10/11 10:17:32;;;;;;;;;;;332.90;2329.60;;;;;;5031364;28;19912;-75
2021/10/11 10:20:11;;;;;;;;;;;332.90;2329.60;;;;;;5036696;28;19929;-78
2021/10/11 10:22:40;;;;;;;;;;;333.00;2329.60;;;;;;5025294;28;19905;-74
2021/10/11 10:25:07;;;;;;;;;;;333.10;2329.60;;;;;;5020732;28;19909;-73
2021/10/11 10:27:38;;;;;;;;;;;333.00;2329.60;;;;;;5020228;28;19916;-72
2021/10/11 10:30:17;;;;;;;;;;;333.00;2329.60;;;;;;5032515;28;19904;-75
2021/10/11 10:33:02;;;;;;;;;;;332.90;2329.60;;;;;;5032578;28;20015;-76
2021/10/11 10:35:29;;;;;;;;;;;332.90;2329.60;;;;;;5044672;28;19995;-76
2021/10/11 10:37:55;;;;;;;;;;;333.00;2329.60;;;;;;5032505;28;19909;-76
2021/10/11 10:40:24;;;;;;;;;;;333.00;2329.60;;;;;;5045413;28;20324;-77
2021/10/11 10:42:49;;;;;;;;;;;333.00;2329.60;;;;;;5034264;28;19915;-75
2021/10/11 10:45:17;;;;;;;;;;;332.90;2329.60;;;;;;5033028;28;19905;-75
2021/10/11 10:47:42;;;;;;;;;;;332.90;2329.60;;;;;;5032594;28;19905;-75
2021/10/11 10:50:10;;;;;;;;;;;332.90;2329.60;;;;;;5023610;28;19996;-77
2021/10/11 10:52:35;;;;;;;;;;;333.00;2329.60;;;;;;5027650;28;19925;-77
2021/10/11 10:55:01;;;;;;;;;;;332.90;2329.60;;;;;;5038813;28;20242;-77
2021/10/11 10:57:31;;;;;;;;;;;332.90;2329.60;;;;;;5048691;28;19919;-75
2021/10/11 10:59:59;;;;;;;;;;;332.80;2329.60;;;;;;5030373;28;19923;-75
2021/10/11 11:02:25;;;;;;;;;;;332.80;2329.60;;;;;;5039899;28;20397;-74
2021/10/11 11:04:58;;;;;;;;;;;308.10;2304.00;;;;;;5035392;28;19921;-75
2021/10/11 11:07:28;;;;;;;;;;;332.80;2329.60;;;;;;5030050;28;19944;-77
2021/10/11 11:09:54;;;;;;;;;;;308.10;2304.00;;;;;;5025328;28;19905;-74
2021/10/11 11:12:28;;;;;;;;;;;333.10;2329.60;;;;;;5029915;28;19911;-74
2021/10/11 11:14:54;;;;;;;;;;;308.10;2304.00;;;;;;5029808;28;19906;-78
2021/10/11 11:17:30;;;;;;;;;;;308.10;2304.00;;;;;;5028994;28;19917;-77
2021/10/11 11:19:55;;;;;;;;;;;332.80;2329.60;;;;;;5026606;28;19999;-77
2021/10/11 11:22:28;;;;;;;;;;;308.10;2304.00;;;;;;5031772;28;20395;-76
2021/10/11 11:24:56;;;;;;;;;;;308.10;2304.00;;;;;;5028966;28;19909;-76
2021/10/11 11:27:32;;;;;;;;;;;308.10;2304.00;;;;;;5031089;28;19928;-75
2021/10/11 11:29:59;;;;;;;;;;;308.00;2304.00;;;;;;5031658;28;19905;-75
2021/10/11 11:32:25;;;;;;;;;;;307.90;2304.00;;;;;;5029922;28;19909;-78
2021/10/11 11:34:50;;;;;;;;;;;307.90;2304.00;;;;;;5032293;28;20255;-77
2021/10/11 11:37:16;;;;;;;;;;;307.90;2304.00;;;;;;5032100;28;19905;-79
2021/10/11 11:39:42;;;;;;;;;;;308.00;2304.00;;;;;;5030882;28;20370;-74
2021/10/11 11:42:08;;;;;;;;;;;308.00;2304.00;;;;;;5031311;28;19909;-79
2021/10/11 11:44:33;;;;;;;;;;;308.10;2304.00;;;;;;5013237;28;19909;-79
2021/10/11 11:47:03;;;;;;;;;;;307.90;2304.00;;;;;;5032742;28;20369;-75
2021/10/11 11:49:29;;;;;;;;;;;307.90;2304.00;;;;;;5031989;28;19952;-74
2021/10/11 11:52:05;;;;;;;;;;;308.00;2304.00;;;;;;5032357;28;19909;-75
2021/10/11 11:54:30;;;;;;;;;;;308.00;2304.00;;;;;;5057511;28;19963;-76
2021/10/11 11:56:56;;;;;;;;;;;307.90;2304.00;;;;;;5025744;28;19912;-79
2021/10/11 11:59:22;;;;;;;;;;;307.90;2304.00;;;;;;5035126;28;19924;-74
2021/10/11 12:01:47;;;;;;;;;;;307.80;2304.00;;;;;;5049078;28;20016;-78
2021/10/11 12:04:13;;;;;;;;;;;307.80;2304.00;;;;;;5029322;28;20397;-77
2021/10/11 12:06:39;;;;;;;;;;;307.80;2304.00;;;;;;5033389;28;19916;-74
2021/10/11 12:09:05;;;;;;;;;;;307.90;2304.00;;;;;;5033148;28;19916;-73
2021/10/11 12:11:31;;;;;;;;;;;307.90;2304.00;;;;;;5027099;28;19909;-74
2021/10/11 12:13:57;;;;;;;;;;;307.90;2304.00;;;;;;5027582;28;19931;-78
2021/10/11 12:16:24;;;;;;;;;;;307.90;2304.00;;;;;;5026780;28;20549;-77
2021/10/11 12:18:51;;;;;;;;;;;307.90;2304.00;;;;;;5030503;28;19913;-75
2021/10/11 12:21:36;;;;;;;;;;;307.80;2304.00;;;;;;5031995;28;20252;-75
2021/10/11 12:24:03;;;;;;;;;;;307.80;2304.00;;;;;;5035932;28;19916;-74
2021/10/11 12:26:29;;;;;;;;;;;307.90;2304.00;;;;;;5034427;28;19944;-73
2021/10/11 12:28:57;;;;;;;;;;;307.90;2304.00;;;;;;5034883;28;19925;-78
2021/10/11 12:31:28;;;;;;;;;;;307.90;2304.00;;;;;;5034125;28;19913;-78
2021/10/11 12:34:02;;;;;;;;;;;308.00;2304.00;;;;;;5033370;28;19909;-79
2021/10/11 12:36:28;;;;;;;;;;;308.00;2304.00;;;;;;5033110;28;20415;-76
2021/10/11 12:38:54;;;;;;;;;;;307.80;2304.00;;;;;;5049174;28;19909;-80
2021/10/11 12:41:19;;;;;;;;;;;307.80;2304.00;;;;;;5032558;28;19959;-77
2021/10/11 12:43:56;;;;;;;;;;;307.80;2304.00;;;;;;5047689;28;20381;-75
2021/10/11 12:46:22;;;;;;;;;;;307.80;2304.00;;;;;;5025532;28;20373;-74
2021/10/11 12:48:49;;;;;;;;;;;307.80;2304.00;;;;;;5031944;28;19920;-75
2021/10/11 12:51:23;;;;;;;;;;;307.90;2304.00;;;;;;5033465;28;20654;-74
2021/10/11 12:53:58;;;;;;;;;;;307.90;2304.00;;;;;;5030116;28;19909;-74
2021/10/11 12:56:23;;;;;;;;;;;307.90;2304.00;;;;;;5017063;28;19908;-79
2021/10/11 12:58:55;;;;;;;;;;;307.80;2304.00;;;;;;5058493;28;19979;-73
2021/10/11 13:01:20;;;;;;;;;;;307.70;2304.00;;;;;;5029571;28;19952;-76
2021/10/11 13:03:46;;;;;;;;;;;307.60;2304.00;;;;;;5029505;28;19964;-75
2021/10/11 13:06:18;;;;;;;;;;;307.60;2304.00;;;;;;5034555;28;20323;-78
2021/10/11 13:08:44;;;;;;;;;;;307.60;2304.00;;;;;;5048575;28;19905;-83
2021/10/11 13:11:10;;;;;;;;;;;307.60;2304.00;;;;;;5032264;28;19996;-80
2021/10/11 13:13:35;;;;;;;;;;;307.60;2304.00;;;;;;5045348;28;19930;-78
2021/10/11 13:16:03;;;;;;;;;;;307.60;2304.00;;;;;;5053919;28;20350;-73
2021/10/11 13:18:29;;;;;;;;;;;307.60;2304.00;;;;;;5053991;28;19987;-81
2021/10/11 13:20:54;;;;;;;;;;;307.60;2304.00;;;;;;5084839;28;20004;-79
2021/10/11 13:23:20;;;;;;;;;;;307.60;2304.00;;;;;;5034244;28;19916;-75
2021/10/11 13:25:46;;;;;;;;;;;307.50;2304.00;;;;;;5049498;28;19908;-79
2021/10/11 13:28:12;;;;;;;;;;;307.60;2304.00;;;;;;5031432;28;19916;-75
2021/10/11 14:27:47;;;;;;;;;;;307.90;2304.00;;;;;;5024608;28;20004;-77
2021/10/11 14:33:15;;;;;;;;;;;307.70;2304.00;;;;;;5028586;28;19911;-78